createdAt,value
2019-06-20T00:01:28.330Z,12.77
2019-06-20T00:03:59.231Z,9.07
2019-06-20T00:06:30.125Z,6.70
2019-06-20T00:09:01.048Z,5.93
2019-06-20T00:11:31.891Z,6.60
2019-06-20T00:14:02.872Z,6.10
2019-06-20T00:16:33.740Z,6.23
2019-06-20T00:19:04.680Z,8.70
2019-06-20T00:21:35.533Z,6.87
2019-06-20T00:24:06.383Z,6.93
2019-06-20T00:26:37.257Z,7.23
2019-06-20T00:29:08.089Z,6.87
2019-06-20T00:31:38.979Z,8.30
2019-06-20T00:34:09.908Z,8.70
2019-06-20T00:36:40.724Z,6.20
2019-06-20T00:39:11.636Z,6.13
2019-06-20T00:41:42.498Z,6.40
2019-06-20T00:44:13.359Z,6.57
2019-06-20T00:46:44.196Z,7.37
2019-06-20T00:49:15.040Z,7.50
2019-06-20T00:51:45.950Z,4.90
2019-06-20T00:54:16.783Z,6.07
2019-06-20T00:56:47.698Z,6.53
2019-06-20T00:59:18.618Z,7.63
2019-06-20T01:01:49.513Z,4.83
2019-06-20T01:04:20.405Z,6.03
2019-06-20T01:06:51.208Z,7.90
2019-06-20T01:09:22.180Z,4.80
2019-06-20T01:11:53.103Z,7.73
2019-06-20T01:14:23.975Z,11.10
2019-06-20T01:16:54.813Z,10.07
2019-06-20T01:19:25.741Z,10.93
2019-06-20T01:21:56.615Z,11.43
2019-06-20T01:24:27.483Z,9.97
2019-06-20T01:26:58.392Z,9.20
2019-06-20T01:29:29.325Z,7.80
2019-06-20T01:32:00.241Z,7.40
2019-06-20T01:34:31.139Z,8.17
2019-06-20T01:37:01.955Z,8.33
2019-06-20T01:39:33.143Z,8.03
2019-06-20T01:42:03.992Z,9.27
2019-06-20T01:44:34.849Z,8.27
2019-06-20T01:47:05.805Z,12.10
2019-06-20T01:49:36.678Z,10.67
2019-06-20T01:52:07.586Z,10.40
2019-06-20T01:54:39.345Z,9.40
2019-06-20T01:57:10.187Z,8.63
2019-06-20T01:59:41.125Z,9.87
2019-06-20T02:02:11.966Z,14.33
2019-06-20T02:04:42.849Z,9.50
2019-06-20T02:07:13.695Z,17.20
2019-06-20T02:09:44.565Z,9.23
2019-06-20T02:12:15.432Z,14.17
2019-06-20T02:14:46.312Z,11.47
2019-06-20T02:17:17.242Z,13.00
2019-06-20T02:19:48.113Z,11.93
2019-06-20T02:22:18.986Z,15.80
2019-06-20T02:24:49.852Z,17.13
2019-06-20T02:27:21.877Z,16.17
2019-06-20T02:29:52.813Z,20.87
2019-06-20T02:32:23.660Z,25.17
2019-06-20T02:34:54.528Z,23.53
2019-06-20T02:37:25.388Z,19.23
2019-06-20T02:39:56.267Z,15.33
2019-06-20T02:42:27.137Z,16.73
2019-06-20T02:44:58.024Z,17.23
2019-06-20T02:47:28.909Z,15.00
2019-06-20T02:49:59.794Z,14.63
2019-06-20T02:52:30.769Z,14.53
2019-06-20T02:55:01.978Z,18.90
2019-06-20T02:57:32.851Z,15.07
2019-06-20T03:00:07.932Z,16.87
2019-06-20T03:02:38.766Z,17.07
2019-06-20T03:05:10.871Z,16.57
2019-06-20T03:07:41.793Z,15.77
2019-06-20T03:10:13.185Z,14.80
2019-06-20T03:12:44.143Z,14.20
2019-06-20T03:15:15.465Z,14.70
2019-06-20T03:17:46.874Z,16.10
2019-06-20T03:20:19.109Z,16.10
2019-06-20T03:22:50.032Z,15.13
2019-06-20T03:25:21.092Z,16.07
2019-06-20T03:27:51.970Z,14.70
2019-06-20T03:30:23.010Z,17.90
2019-06-20T03:32:53.882Z,18.67
2019-06-20T03:35:25.004Z,15.47
2019-06-20T03:37:55.947Z,22.83
2019-06-20T03:40:26.820Z,17.97
2019-06-20T03:42:57.756Z,18.53
2019-06-20T03:45:28.692Z,17.63
2019-06-20T03:47:59.566Z,17.67
2019-06-20T03:50:30.460Z,16.00
2019-06-20T03:53:01.398Z,21.03
2019-06-20T03:55:33.028Z,15.80
2019-06-20T03:58:04.038Z,16.40
2019-06-20T04:00:36.173Z,15.40
2019-06-20T04:03:07.138Z,18.63
2019-06-20T04:05:38.019Z,14.57
2019-06-20T04:08:08.865Z,14.40
2019-06-20T04:10:40.666Z,16.07
2019-06-20T04:13:11.522Z,12.83
2019-06-20T04:15:42.418Z,14.00
2019-06-20T04:18:13.699Z,15.10
2019-06-20T04:20:44.582Z,13.83
2019-06-20T04:23:15.437Z,13.80
2019-06-20T04:25:46.320Z,14.43
2019-06-20T04:28:17.240Z,13.33
2019-06-20T04:30:48.216Z,16.90
2019-06-20T04:33:19.173Z,14.20
2019-06-20T04:35:50.065Z,14.93
2019-06-20T04:38:20.953Z,15.77
2019-06-20T04:40:51.828Z,15.70
2019-06-20T04:43:22.799Z,11.23
2019-06-20T04:46:03.801Z,11.57
2019-06-20T04:48:34.805Z,11.47
2019-06-20T04:51:05.727Z,11.50
2019-06-20T04:53:36.596Z,10.17
2019-06-20T04:56:08.505Z,11.67
2019-06-20T04:58:39.373Z,9.20
2019-06-20T05:01:10.269Z,10.00
2019-06-20T05:03:41.130Z,10.50
2019-06-20T05:06:12.053Z,11.73
2019-06-20T05:08:42.898Z,9.57
2019-06-20T05:11:13.772Z,9.30
2019-06-20T05:13:44.624Z,10.27
2019-06-20T05:16:15.492Z,8.93
2019-06-20T05:18:46.343Z,10.33
2019-06-20T05:21:17.207Z,8.87
2019-06-20T05:23:48.137Z,13.53
2019-06-20T05:26:19.070Z,8.70
2019-06-20T05:28:49.938Z,8.40
2019-06-20T05:31:20.900Z,7.77
2019-06-20T05:33:51.801Z,8.67
2019-06-20T05:36:22.681Z,7.27
2019-06-20T05:38:53.554Z,8.00
2019-06-20T05:41:24.444Z,7.70
2019-06-20T05:43:55.308Z,6.60
2019-06-20T05:46:26.263Z,7.00
2019-06-20T05:48:57.588Z,12.30
2019-06-20T05:51:28.459Z,7.07
2019-06-20T05:53:59.325Z,7.47
2019-06-20T05:56:30.207Z,10.23
2019-06-20T05:59:01.100Z,7.70
2019-06-20T06:01:31.967Z,6.53
2019-06-20T06:04:02.945Z,6.50
2019-06-20T06:06:33.761Z,6.77
2019-06-20T06:09:07.067Z,5.00
2019-06-20T06:11:38.159Z,5.10
2019-06-20T06:14:09.095Z,7.43
2019-06-20T06:16:43.880Z,3.33
2019-06-20T06:19:12.645Z,3.87
2019-06-20T06:21:44.696Z,4.40
2019-06-20T06:24:15.620Z,4.90
2019-06-20T06:26:46.612Z,2.53
2019-06-20T06:29:17.472Z,6.60
2019-06-20T06:31:48.295Z,2.40
2019-06-20T06:34:22.001Z,3.60
2019-06-20T06:36:51.686Z,6.67
2019-06-20T06:39:22.540Z,4.67
2019-06-20T06:41:53.764Z,3.67
2019-06-20T06:44:24.704Z,2.93
2019-06-20T06:46:59.488Z,4.73
2019-06-20T06:49:28.328Z,3.97
2019-06-20T06:51:59.198Z,3.97
2019-06-20T06:54:30.057Z,5.67
2019-06-20T06:57:00.939Z,4.30
2019-06-20T06:59:31.924Z,4.60
2019-06-20T07:02:02.787Z,5.93
2019-06-20T07:04:33.806Z,4.67
2019-06-20T07:07:04.711Z,5.83
2019-06-20T07:09:35.785Z,6.23
2019-06-20T07:12:11.219Z,6.57
2019-06-20T07:14:45.163Z,4.50
2019-06-20T07:17:17.920Z,8.40
2019-06-20T07:19:50.762Z,8.73
2019-06-20T07:22:21.802Z,6.93
2019-06-20T07:24:54.320Z,5.50
2019-06-20T07:27:25.248Z,9.10
2019-06-20T07:29:56.105Z,5.53
2019-06-20T07:32:26.943Z,7.27
2019-06-20T07:35:00.913Z,5.83
2019-06-20T07:37:31.835Z,6.47
2019-06-20T07:40:08.547Z,6.03
2019-06-20T07:42:51.133Z,3.97
2019-06-20T07:45:29.101Z,4.17
2019-06-20T07:47:54.004Z,3.13
2019-06-20T07:50:24.835Z,2.90
2019-06-20T07:53:01.863Z,3.07
2019-06-20T07:55:28.523Z,1.87
2019-06-20T07:58:02.270Z,2.57
2019-06-20T08:00:33.268Z,4.40
2019-06-20T08:03:04.883Z,2.20
2019-06-20T08:05:35.907Z,2.80
2019-06-20T08:08:06.759Z,2.30
2019-06-20T08:10:37.738Z,2.40
2019-06-20T08:13:08.572Z,3.07
2019-06-20T08:15:39.573Z,1.83
2019-06-20T08:18:10.728Z,2.43
2019-06-20T08:20:41.558Z,2.33
2019-06-20T08:23:12.414Z,2.47
2019-06-20T08:25:43.342Z,1.40
2019-06-20T08:28:14.192Z,1.80
2019-06-20T08:30:45.056Z,5.00
2019-06-20T08:33:16.904Z,1.90
2019-06-20T08:35:47.902Z,3.77
2019-06-20T08:38:19.095Z,1.87
2019-06-20T08:40:50.003Z,1.97
2019-06-20T08:43:20.880Z,5.00
2019-06-20T08:45:52.040Z,1.57
2019-06-20T08:48:24.342Z,2.47
2019-06-20T08:50:56.854Z,4.43
2019-06-20T08:53:27.772Z,2.63
2019-06-20T08:55:59.412Z,2.23
2019-06-20T08:58:30.713Z,3.40
2019-06-20T09:03:34.186Z,2.07
2019-06-20T09:06:05.177Z,2.33
2019-06-20T09:08:36.741Z,2.47
2019-06-20T09:11:09.218Z,3.60
2019-06-20T09:13:40.714Z,3.03
2019-06-20T09:16:24.103Z,2.03
2019-06-20T09:18:44.347Z,2.90
2019-06-20T09:21:15.192Z,2.57
2019-06-20T09:23:47.031Z,3.23
2019-06-20T09:26:17.927Z,2.60
2019-06-20T09:28:48.750Z,2.87
2019-06-20T09:31:19.596Z,5.47
2019-06-20T09:33:52.119Z,4.40
2019-06-20T09:36:25.854Z,2.37
2019-06-20T09:38:57.842Z,4.53
2019-06-20T09:41:29.280Z,2.67
2019-06-20T09:44:00.214Z,2.80
2019-06-20T09:46:31.626Z,3.37
2019-06-20T09:49:02.769Z,3.03
2019-06-20T09:51:33.829Z,4.40
2019-06-20T09:54:05.305Z,5.10
2019-06-20T09:56:36.229Z,4.90
2019-06-20T09:59:07.307Z,1.93
2019-06-20T10:01:38.294Z,2.63
2019-06-20T10:04:09.310Z,3.25
2019-06-20T10:06:40.394Z,2.97
2019-06-20T10:09:11.507Z,2.58
2019-06-20T10:11:42.461Z,3.10
2019-06-20T10:14:13.571Z,3.00
2019-06-20T10:16:47.438Z,5.55
2019-06-20T10:19:17.229Z,3.77
2019-06-20T10:21:48.077Z,5.93
2019-06-20T10:24:19.265Z,5.03
2019-06-20T10:26:51.523Z,2.20
2019-06-20T10:29:22.554Z,2.50
2019-06-20T10:31:53.459Z,3.17
2019-06-20T10:34:24.498Z,2.65
2019-06-20T10:36:56.971Z,3.10
2019-06-20T10:39:28.125Z,3.08
2019-06-20T10:41:59.042Z,3.02
2019-06-20T10:44:30.043Z,2.10
2019-06-20T10:47:01.046Z,3.47
2019-06-20T10:49:32.057Z,3.25
2019-06-20T10:52:02.973Z,2.58
2019-06-20T10:54:34.016Z,2.80
2019-06-20T10:57:06.499Z,4.47
2019-06-20T10:59:37.437Z,4.08
2019-06-20T11:02:08.515Z,2.92
2019-06-20T11:04:40.703Z,2.70
2019-06-20T11:07:12.063Z,3.95
2019-06-20T11:09:45.134Z,2.27
2019-06-20T11:12:16.183Z,2.15
2019-06-20T11:14:48.449Z,2.65
2019-06-20T11:17:19.536Z,4.35
2019-06-20T11:19:50.544Z,4.53
2019-06-20T11:22:21.373Z,2.70
2019-06-20T11:24:52.231Z,4.40
2019-06-20T11:27:23.144Z,2.83
2019-06-20T11:29:54.020Z,4.03
2019-06-20T11:32:24.881Z,2.70
2019-06-20T11:34:55.742Z,2.97
2019-06-20T11:37:26.634Z,1.57
2019-06-20T11:39:58.449Z,2.33
2019-06-20T11:42:29.415Z,3.45
2019-06-20T11:45:01.605Z,2.05
2019-06-20T11:47:34.907Z,4.07
2019-06-20T11:50:10.022Z,2.40
2019-06-20T11:52:44.003Z,2.62
2019-06-20T11:55:14.057Z,5.93
2019-06-20T11:57:45.131Z,1.35
2019-06-20T12:00:16.946Z,2.62
2019-06-20T12:02:48.348Z,1.85
2019-06-20T12:05:19.634Z,1.98
2019-06-20T12:07:50.725Z,2.20
2019-06-20T12:10:22.288Z,2.20
2019-06-20T12:12:53.452Z,3.27
2019-06-20T12:15:24.473Z,2.20
2019-06-20T12:17:55.395Z,2.10
2019-06-20T12:20:26.421Z,2.97
2019-06-20T12:22:57.246Z,2.90
2019-06-20T12:25:28.258Z,3.03
2019-06-20T12:27:59.110Z,3.63
2019-06-20T12:30:30.594Z,2.97
2019-06-20T12:33:01.590Z,4.47
2019-06-20T12:35:32.603Z,1.60
2019-06-20T12:38:03.519Z,1.47
2019-06-20T12:40:34.368Z,3.43
2019-06-20T12:43:08.097Z,1.95
2019-06-20T12:45:40.050Z,2.12
2019-06-20T12:48:11.886Z,2.42
2019-06-20T12:50:43.070Z,1.87
2019-06-20T12:53:14.027Z,2.27
2019-06-20T12:55:45.753Z,2.08
2019-06-20T12:58:16.778Z,2.50
2019-06-20T13:00:47.773Z,4.08
2019-06-20T13:03:18.686Z,2.27
2019-06-20T13:05:49.740Z,2.58
2019-06-20T13:08:20.702Z,3.58
2019-06-20T13:10:52.590Z,2.17
2019-06-20T13:13:23.532Z,2.00
2019-06-20T13:15:54.550Z,1.87
2019-06-20T13:18:25.474Z,1.67
2019-06-20T13:20:56.403Z,2.33
2019-06-20T13:23:27.360Z,1.32
2019-06-20T13:25:59.219Z,2.72
2019-06-20T13:28:30.158Z,2.40
2019-06-20T13:31:01.097Z,3.05
2019-06-20T13:33:32.035Z,1.52
2019-06-20T13:36:03.090Z,1.90
2019-06-20T13:38:34.016Z,1.50
2019-06-20T13:41:05.011Z,3.80
2019-06-20T13:43:35.949Z,3.10
2019-06-20T13:46:07.035Z,2.17
2019-06-20T13:48:38.906Z,1.87
2019-06-20T13:51:10.733Z,1.40
2019-06-20T13:53:42.657Z,3.90
2019-06-20T13:56:13.981Z,2.95
2019-06-20T13:58:44.904Z,1.85
2019-06-20T14:01:15.855Z,1.70
2019-06-20T14:03:47.094Z,1.77
2019-06-20T14:06:19.502Z,1.87
2019-06-20T14:08:50.425Z,2.30
2019-06-20T14:11:21.274Z,2.27
2019-06-20T14:13:53.021Z,3.70
2019-06-20T14:16:24.144Z,6.27
2019-06-20T14:18:55.036Z,3.30
2019-06-20T14:21:25.932Z,4.73
2019-06-20T14:23:56.789Z,2.43
2019-06-20T14:26:27.687Z,3.10
2019-06-20T14:28:58.523Z,3.00
2019-06-20T14:31:30.299Z,4.47
2019-06-20T14:34:01.153Z,3.63
2019-06-20T14:36:32.089Z,8.13
2019-06-20T14:39:02.976Z,4.93
2019-06-20T14:41:33.898Z,4.00
2019-06-20T14:44:04.755Z,9.20
2019-06-20T14:46:35.702Z,5.83
2019-06-20T14:49:06.703Z,8.63
2019-06-20T14:51:37.606Z,6.07
2019-06-20T14:54:08.535Z,6.60
2019-06-20T14:56:39.397Z,7.83
2019-06-20T14:59:10.264Z,6.87
2019-06-20T15:01:41.165Z,4.63
2019-06-20T15:04:12.015Z,3.83
2019-06-20T15:06:44.910Z,5.33
2019-06-20T15:09:15.617Z,6.00
2019-06-20T15:11:51.277Z,4.40
2019-06-20T15:14:27.614Z,4.53
2019-06-20T15:16:58.996Z,3.20
2019-06-20T15:19:30.161Z,4.37
2019-06-20T15:22:03.625Z,5.20
2019-06-20T15:24:35.122Z,3.40
2019-06-20T15:27:06.098Z,4.07
2019-06-20T15:29:37.077Z,3.93
2019-06-20T15:32:09.482Z,5.60
2019-06-20T15:34:40.478Z,2.37
2019-06-20T15:37:11.396Z,1.90
2019-06-20T15:39:42.374Z,3.40
2019-06-20T15:42:13.950Z,3.77
2019-06-20T15:44:44.936Z,4.40
2019-06-20T15:47:16.378Z,3.50
2019-06-20T15:49:47.831Z,4.57
2019-06-20T15:52:18.663Z,5.03
2019-06-20T15:54:49.342Z,4.00
2019-06-20T15:57:20.182Z,3.00
2019-06-20T15:59:51.001Z,2.87
2019-06-20T16:02:21.712Z,3.07
2019-06-20T16:04:53.979Z,2.47
2019-06-20T16:07:25.137Z,3.80
2019-06-20T16:09:57.443Z,3.43
2019-06-20T16:12:28.124Z,3.47
2019-06-20T16:14:59.170Z,3.30
2019-06-20T16:17:30.163Z,4.87
2019-06-20T16:20:00.622Z,3.53
2019-06-20T16:22:31.571Z,4.67
2019-06-20T16:25:02.225Z,4.63
2019-06-20T16:27:32.933Z,6.80
2019-06-20T16:30:06.947Z,3.43
2019-06-20T16:32:37.785Z,6.83
2019-06-20T16:35:14.061Z,5.13
2019-06-20T16:37:44.879Z,7.07
2019-06-20T16:40:25.763Z,4.83
2019-06-20T16:42:56.620Z,3.80
2019-06-20T16:45:27.588Z,5.97
2019-06-20T16:47:58.320Z,3.77
2019-06-20T16:50:29.027Z,4.83
2019-06-20T16:53:01.276Z,4.43
2019-06-20T16:55:32.125Z,4.30
2019-06-20T16:58:02.953Z,5.43
2019-06-20T17:00:33.754Z,4.33
2019-06-20T17:03:05.632Z,5.03
2019-06-20T17:05:36.424Z,5.10
2019-06-20T17:08:07.158Z,6.00
2019-06-20T17:10:37.847Z,5.10
2019-06-20T17:13:08.574Z,5.87
2019-06-20T17:15:39.354Z,5.67
2019-06-20T17:18:10.158Z,6.53
2019-06-20T17:20:40.926Z,6.80
2019-06-20T17:23:11.587Z,5.10
2019-06-20T17:25:42.330Z,6.03
2019-06-20T17:28:13.095Z,4.47
2019-06-20T17:30:43.857Z,4.77
2019-06-20T17:33:15.004Z,3.73
2019-06-20T17:35:45.803Z,3.27
2019-06-20T17:38:16.494Z,6.43
2019-06-20T17:40:47.433Z,6.57
2019-06-20T17:43:18.122Z,6.07
2019-06-20T17:45:48.812Z,5.60
2019-06-20T17:48:19.433Z,6.77
2019-06-20T17:50:50.137Z,8.63
2019-06-20T17:53:20.808Z,5.33
2019-06-20T17:55:51.540Z,5.27
2019-06-20T17:58:25.021Z,3.83
2019-06-20T18:00:58.809Z,4.47
2019-06-20T18:03:29.589Z,3.37
2019-06-20T18:06:00.315Z,4.77
2019-06-20T18:08:31.033Z,3.97
2019-06-20T18:11:02.208Z,4.77
2019-06-20T18:13:32.924Z,3.37
2019-06-20T18:16:03.727Z,4.40
2019-06-20T18:18:34.939Z,4.37
2019-06-20T18:21:05.772Z,3.37
2019-06-20T18:23:36.562Z,5.20
2019-06-20T18:26:08.874Z,4.43
2019-06-20T18:28:39.534Z,6.83
2019-06-20T18:31:10.234Z,5.33
2019-06-20T18:33:40.875Z,4.13
2019-06-20T18:36:11.570Z,4.30
2019-06-20T18:38:42.914Z,4.00
2019-06-20T18:41:13.659Z,7.67
2019-06-20T18:43:44.312Z,4.27
2019-06-20T18:46:15.032Z,3.70
2019-06-20T18:48:45.820Z,4.13
2019-06-20T18:51:16.482Z,5.20
2019-06-20T18:53:50.511Z,5.97
2019-06-20T18:56:19.559Z,4.93
2019-06-20T18:58:50.346Z,6.07
2019-06-20T19:01:21.232Z,10.30
2019-06-20T19:03:52.234Z,6.10
2019-06-20T19:06:35.499Z,4.13
2019-06-20T19:08:57.210Z,5.37
2019-06-20T19:11:27.858Z,5.53
2019-06-20T19:13:58.506Z,4.53
2019-06-20T19:16:29.202Z,5.40
2019-06-20T19:18:59.925Z,5.30
2019-06-20T19:21:32.319Z,6.30
2019-06-20T19:24:03.071Z,7.80
2019-06-20T19:26:33.736Z,6.47
2019-06-20T19:29:04.457Z,8.67
2019-06-20T19:31:35.133Z,6.90
2019-06-20T19:34:05.872Z,7.27
2019-06-20T19:36:36.550Z,5.87
2019-06-20T19:39:07.915Z,5.43
2019-06-20T19:41:38.664Z,7.80
2019-06-20T19:44:09.313Z,8.30
2019-06-20T19:46:40.141Z,8.77
2019-06-20T19:49:10.958Z,6.97
2019-06-20T19:51:41.682Z,7.30
2019-06-20T19:54:15.296Z,11.10
2019-06-20T19:56:45.986Z,8.33
2019-06-20T19:59:16.727Z,7.77
2019-06-20T20:01:47.491Z,9.40
2019-06-20T20:04:18.206Z,10.57
2019-06-20T20:06:48.959Z,8.57
2019-06-20T20:09:19.701Z,8.10
2019-06-20T20:11:50.514Z,8.23
2019-06-20T20:14:21.206Z,10.77
2019-06-20T20:16:51.873Z,9.60
2019-06-20T20:19:22.531Z,11.10
2019-06-20T20:21:53.225Z,10.10
2019-06-20T20:24:23.878Z,10.53
2019-06-20T20:26:54.635Z,10.50
2019-06-20T20:29:25.304Z,11.30
2019-06-20T20:31:56.081Z,11.83
2019-06-20T20:34:26.843Z,10.90
2019-06-20T20:36:57.539Z,11.27
2019-06-20T20:39:28.292Z,12.30
2019-06-20T20:41:59.107Z,11.90
2019-06-20T20:44:30.245Z,11.77
2019-06-20T20:47:00.925Z,12.60
2019-06-20T20:49:31.621Z,11.83
2019-06-20T20:52:04.282Z,15.10
2019-06-20T20:54:35.277Z,13.40
2019-06-20T20:57:05.946Z,12.50
2019-06-20T20:59:36.628Z,13.13
2019-06-20T21:02:09.183Z,13.60
2019-06-20T21:04:39.885Z,13.00
2019-06-20T21:07:10.529Z,13.03
2019-06-20T21:09:41.376Z,12.17
2019-06-20T21:12:12.046Z,13.50
2019-06-20T21:14:42.711Z,14.07
2019-06-20T21:17:13.367Z,15.57
2019-06-20T21:19:44.062Z,14.80
2019-06-20T21:22:14.841Z,15.60
2019-06-20T21:24:45.490Z,14.97
2019-06-20T21:27:16.173Z,15.60
2019-06-20T21:29:49.994Z,17.00
2019-06-20T21:32:20.754Z,16.80
2019-06-20T21:34:51.432Z,18.17
2019-06-20T21:37:22.123Z,16.53
2019-06-20T21:39:52.750Z,14.43
2019-06-20T21:42:23.902Z,16.63
2019-06-20T21:44:54.643Z,15.73
2019-06-20T21:47:25.323Z,15.83
2019-06-20T21:49:55.975Z,16.30
2019-06-20T21:52:26.821Z,15.53
2019-06-20T21:54:57.522Z,16.00
2019-06-20T21:57:28.207Z,15.63
2019-06-20T21:59:58.928Z,15.97
2019-06-20T22:02:29.669Z,16.20
2019-06-20T22:05:00.453Z,17.00
2019-06-20T22:07:31.114Z,15.63
2019-06-20T22:10:01.906Z,15.50
2019-06-20T22:12:32.615Z,15.77
2019-06-20T22:15:03.960Z,16.27
2019-06-20T22:17:35.489Z,15.73
2019-06-20T22:20:10.170Z,16.70
2019-06-20T22:22:40.831Z,21.57
2019-06-20T22:25:11.739Z,22.77
2019-06-20T22:27:42.508Z,20.17
2019-06-20T22:30:14.028Z,14.57
2019-06-20T22:32:44.704Z,15.20
2019-06-20T22:35:15.622Z,14.67
2019-06-20T22:37:46.368Z,14.93
2019-06-20T22:40:17.036Z,14.90
2019-06-20T22:42:47.710Z,15.00
2019-06-20T22:45:18.655Z,14.80
2019-06-20T22:47:49.324Z,13.90
2019-06-20T22:50:20.089Z,14.80
2019-06-20T22:52:51.032Z,15.60
2019-06-20T22:55:22.086Z,14.60
2019-06-20T22:57:52.752Z,16.17
2019-06-20T23:00:23.760Z,14.77
2019-06-20T23:02:54.501Z,15.63
2019-06-20T23:05:25.191Z,14.27
2019-06-20T23:07:55.855Z,13.67
2019-06-20T23:10:26.522Z,14.87
2019-06-20T23:12:57.252Z,13.03
2019-06-20T23:15:28.022Z,15.03
2019-06-20T23:17:58.661Z,13.97
2019-06-20T23:20:29.414Z,15.03
2019-06-20T23:23:00.077Z,17.67
2019-06-20T23:25:32.109Z,18.47
2019-06-20T23:28:02.801Z,18.83
2019-06-20T23:30:33.557Z,17.87
2019-06-20T23:33:04.453Z,16.67
2019-06-20T23:35:35.523Z,15.47
2019-06-20T23:38:06.244Z,16.33
2019-06-20T23:40:36.913Z,17.43
2019-06-20T23:43:07.655Z,18.80
2019-06-20T23:45:38.352Z,15.97
2019-06-20T23:48:09.446Z,18.00
2019-06-20T23:50:40.103Z,16.67
2019-06-20T23:53:18.144Z,18.77
2019-06-20T23:55:48.832Z,15.43
2019-06-20T23:58:19.569Z,16.30
